sensor_id;sensor_type;location;lat;lon;timestamp;pressure;altitude;pressure_sealevel;temperature;humidity
29815;BME280;16708;50.426;7.664;2023-08-12T00:00:24;989.73;;;20.33;100.00
29815;BME280;16708;50.426;7.664;2023-08-12T00:05:18;989.69;;;20.37;100.00
29815;BME280;16708;50.426;7.664;2023-08-12T00:10:11;989.78;;;20.39;100.00
29815;BME280;16708;50.426;7.664;2023-08-12T00:15:05;989.67;;;20.44;100.00
29815;BME280;16708;50.426;7.664;2023-08-12T00:20:00;989.61;;;20.31;100.00
29815;BME280;16708;50.426;7.664;2023-08-12T00:24:54;989.70;;;20.35;100.00
29815;BME280;16708;50.426;7.664;2023-08-12T00:29:49;989.65;;;20.36;100.00
29815;BME280;16708;50.426;7.664;2023-08-12T00:34:43;989.65;;;20.25;100.00
29815;BME280;16708;50.426;7.664;2023-08-12T00:39:38;989.67;;;20.23;100.00
29815;BME280;16708;50.426;7.664;2023-08-12T00:44:32;989.53;;;20.19;100.00
29815;BME280;16708;50.426;7.664;2023-08-12T00:49:25;989.57;;;20.25;100.00
29815;BME280;16708;50.426;7.664;2023-08-12T00:54:20;989.47;;;20.30;100.00
29815;BME280;16708;50.426;7.664;2023-08-12T00:59:12;989.61;;;20.39;100.00
29815;BME280;16708;50.426;7.664;2023-08-12T01:04:06;989.77;;;20.49;100.00
29815;BME280;16708;50.426;7.664;2023-08-12T01:09:00;989.62;;;20.25;100.00
29815;BME280;16708;50.426;7.664;2023-08-12T01:13:55;989.73;;;20.22;100.00
29815;BME280;16708;50.426;7.664;2023-08-12T01:18:49;989.75;;;20.15;100.00
29815;BME280;16708;50.426;7.664;2023-08-12T01:23:44;989.51;;;20.02;100.00
29815;BME280;16708;50.426;7.664;2023-08-12T01:28:38;989.57;;;19.91;100.00
29815;BME280;16708;50.426;7.664;2023-08-12T01:33:32;989.79;;;19.85;100.00
29815;BME280;16708;50.426;7.664;2023-08-12T01:38:26;989.73;;;19.88;100.00
29815;BME280;16708;50.426;7.664;2023-08-12T01:43:21;989.96;;;19.86;100.00
29815;BME280;16708;50.426;7.664;2023-08-12T01:48:15;990.07;;;19.86;100.00
29815;BME280;16708;50.426;7.664;2023-08-12T01:53:09;990.14;;;19.78;100.00
29815;BME280;16708;50.426;7.664;2023-08-12T01:58:03;989.99;;;19.77;100.00
29815;BME280;16708;50.426;7.664;2023-08-12T02:02:58;990.11;;;19.85;100.00
29815;BME280;16708;50.426;7.664;2023-08-12T02:07:52;989.75;;;19.44;100.00
29815;BME280;16708;50.426;7.664;2023-08-12T02:12:46;989.85;;;19.57;100.00
29815;BME280;16708;50.426;7.664;2023-08-12T02:17:40;990.20;;;19.49;100.00
29815;BME280;16708;50.426;7.664;2023-08-12T02:22:34;989.92;;;19.56;100.00
29815;BME280;16708;50.426;7.664;2023-08-12T02:27:28;989.96;;;19.54;100.00
29815;BME280;16708;50.426;7.664;2023-08-12T02:32:22;990.14;;;19.31;100.00
29815;BME280;16708;50.426;7.664;2023-08-12T02:37:16;990.05;;;19.36;100.00
29815;BME280;16708;50.426;7.664;2023-08-12T02:42:10;990.10;;;19.45;100.00
29815;BME280;16708;50.426;7.664;2023-08-12T02:47:05;990.02;;;19.49;100.00
29815;BME280;16708;50.426;7.664;2023-08-12T02:51:59;989.99;;;19.43;100.00
29815;BME280;16708;50.426;7.664;2023-08-12T02:56:52;989.96;;;19.33;100.00
29815;BME280;16708;50.426;7.664;2023-08-12T03:01:46;989.87;;;19.30;100.00
29815;BME280;16708;50.426;7.664;2023-08-12T03:06:40;989.92;;;19.42;100.00
29815;BME280;16708;50.426;7.664;2023-08-12T03:11:34;989.87;;;19.42;100.00
29815;BME280;16708;50.426;7.664;2023-08-12T03:16:28;989.94;;;19.36;100.00
29815;BME280;16708;50.426;7.664;2023-08-12T03:21:22;989.85;;;19.32;100.00
29815;BME280;16708;50.426;7.664;2023-08-12T03:26:15;989.84;;;19.33;100.00
29815;BME280;16708;50.426;7.664;2023-08-12T03:31:09;989.82;;;19.29;100.00
29815;BME280;16708;50.426;7.664;2023-08-12T03:36:04;989.62;;;19.31;100.00
29815;BME280;16708;50.426;7.664;2023-08-12T03:40:57;989.50;;;19.30;100.00
29815;BME280;16708;50.426;7.664;2023-08-12T03:45:51;989.37;;;19.34;100.00
29815;BME280;16708;50.426;7.664;2023-08-12T03:50:46;989.43;;;19.33;100.00
29815;BME280;16708;50.426;7.664;2023-08-12T03:55:40;989.33;;;19.33;100.00
29815;BME280;16708;50.426;7.664;2023-08-12T04:00:34;989.33;;;19.31;100.00
29815;BME280;16708;50.426;7.664;2023-08-12T04:05:27;989.31;;;19.30;100.00
29815;BME280;16708;50.426;7.664;2023-08-12T04:10:23;989.25;;;19.25;100.00
29815;BME280;16708;50.426;7.664;2023-08-12T04:15:17;989.26;;;19.29;100.00
29815;BME280;16708;50.426;7.664;2023-08-12T04:20:11;989.15;;;19.30;100.00
29815;BME280;16708;50.426;7.664;2023-08-12T04:25:06;989.16;;;19.37;100.00
29815;BME280;16708;50.426;7.664;2023-08-12T04:30:00;989.25;;;19.33;100.00
29815;BME280;16708;50.426;7.664;2023-08-12T04:34:55;989.09;;;19.30;100.00
29815;BME280;16708;50.426;7.664;2023-08-12T04:39:49;988.98;;;19.28;100.00
29815;BME280;16708;50.426;7.664;2023-08-12T04:44:43;988.95;;;19.19;100.00
29815;BME280;16708;50.426;7.664;2023-08-12T04:49:37;988.83;;;19.14;100.00
29815;BME280;16708;50.426;7.664;2023-08-12T04:54:31;988.82;;;19.10;100.00
29815;BME280;16708;50.426;7.664;2023-08-12T04:59:26;988.78;;;19.12;100.00
29815;BME280;16708;50.426;7.664;2023-08-12T05:04:20;988.74;;;19.10;100.00
29815;BME280;16708;50.426;7.664;2023-08-12T05:09:14;988.73;;;19.06;100.00
29815;BME280;16708;50.426;7.664;2023-08-12T05:14:08;988.67;;;19.07;100.00
29815;BME280;16708;50.426;7.664;2023-08-12T05:19:03;988.58;;;19.23;100.00
29815;BME280;16708;50.426;7.664;2023-08-12T05:23:58;988.59;;;19.43;100.00
29815;BME280;16708;50.426;7.664;2023-08-12T05:28:52;988.66;;;19.62;100.00
29815;BME280;16708;50.426;7.664;2023-08-12T05:33:46;988.63;;;19.73;100.00
29815;BME280;16708;50.426;7.664;2023-08-12T05:38:40;988.54;;;19.90;100.00
29815;BME280;16708;50.426;7.664;2023-08-12T05:43:34;988.45;;;20.04;100.00
29815;BME280;16708;50.426;7.664;2023-08-12T05:48:28;988.52;;;20.07;100.00
29815;BME280;16708;50.426;7.664;2023-08-12T05:53:23;988.41;;;20.08;100.00
29815;BME280;16708;50.426;7.664;2023-08-12T06:03:11;988.51;;;20.82;100.00
29815;BME280;16708;50.426;7.664;2023-08-12T06:08:06;988.62;;;21.10;100.00
29815;BME280;16708;50.426;7.664;2023-08-12T06:13:00;988.78;;;20.63;100.00
29815;BME280;16708;50.426;7.664;2023-08-12T06:17:54;988.85;;;20.56;100.00
29815;BME280;16708;50.426;7.664;2023-08-12T06:22:49;988.97;;;20.69;100.00
29815;BME280;16708;50.426;7.664;2023-08-12T06:27:43;989.01;;;20.49;100.00
29815;BME280;16708;50.426;7.664;2023-08-12T06:32:37;989.12;;;20.19;100.00
29815;BME280;16708;50.426;7.664;2023-08-12T06:37:30;989.29;;;20.05;100.00
29815;BME280;16708;50.426;7.664;2023-08-12T06:42:24;989.13;;;19.88;100.00
29815;BME280;16708;50.426;7.664;2023-08-12T06:47:18;989.15;;;19.90;100.00
29815;BME280;16708;50.426;7.664;2023-08-12T06:52:12;989.01;;;19.88;100.00
29815;BME280;16708;50.426;7.664;2023-08-12T06:57:07;989.09;;;19.86;100.00
29815;BME280;16708;50.426;7.664;2023-08-12T07:02:01;989.09;;;19.86;100.00
29815;BME280;16708;50.426;7.664;2023-08-12T07:06:56;989.11;;;19.81;100.00
29815;BME280;16708;50.426;7.664;2023-08-12T07:11:51;989.06;;;19.76;100.00
29815;BME280;16708;50.426;7.664;2023-08-12T07:16:45;988.92;;;19.85;100.00
29815;BME280;16708;50.426;7.664;2023-08-12T07:21:39;988.97;;;20.03;100.00
29815;BME280;16708;50.426;7.664;2023-08-12T07:26:33;988.82;;;19.97;100.00
29815;BME280;16708;50.426;7.664;2023-08-12T07:31:28;989.02;;;20.04;100.00
29815;BME280;16708;50.426;7.664;2023-08-12T07:36:22;988.95;;;20.18;100.00
29815;BME280;16708;50.426;7.664;2023-08-12T07:41:17;988.72;;;20.76;100.00
29815;BME280;16708;50.426;7.664;2023-08-12T07:46:11;988.64;;;21.16;100.00
29815;BME280;16708;50.426;7.664;2023-08-12T07:51:06;988.46;;;21.29;100.00
29815;BME280;16708;50.426;7.664;2023-08-12T07:56:01;988.45;;;21.38;100.00
29815;BME280;16708;50.426;7.664;2023-08-12T08:00:56;988.41;;;21.52;100.00
29815;BME280;16708;50.426;7.664;2023-08-12T08:05:50;988.39;;;21.18;100.00
29815;BME280;16708;50.426;7.664;2023-08-12T08:10:46;988.53;;;20.82;100.00
29815;BME280;16708;50.426;7.664;2023-08-12T08:15:39;988.53;;;20.95;100.00
29815;BME280;16708;50.426;7.664;2023-08-12T08:20:34;988.58;;;20.80;100.00
29815;BME280;16708;50.426;7.664;2023-08-12T08:25:28;988.40;;;21.16;100.00
29815;BME280;16708;50.426;7.664;2023-08-12T08:30:23;988.55;;;21.33;100.00
29815;BME280;16708;50.426;7.664;2023-08-12T08:35:17;988.49;;;21.47;100.00
29815;BME280;16708;50.426;7.664;2023-08-12T08:40:11;988.42;;;21.45;100.00
29815;BME280;16708;50.426;7.664;2023-08-12T08:45:07;988.34;;;21.75;100.00
29815;BME280;16708;50.426;7.664;2023-08-12T08:50:04;988.43;;;22.17;100.00
29815;BME280;16708;50.426;7.664;2023-08-12T08:54:56;988.42;;;22.13;100.00
29815;BME280;16708;50.426;7.664;2023-08-12T08:59:50;988.44;;;22.21;100.00
29815;BME280;16708;50.426;7.664;2023-08-12T09:04:44;988.52;;;22.74;100.00
29815;BME280;16708;50.426;7.664;2023-08-12T09:09:39;988.56;;;22.75;100.00
29815;BME280;16708;50.426;7.664;2023-08-12T09:14:34;988.47;;;22.92;100.00
29815;BME280;16708;50.426;7.664;2023-08-12T09:19:28;988.40;;;23.27;100.00
29815;BME280;16708;50.426;7.664;2023-08-12T09:24:23;988.21;;;23.27;100.00
29815;BME280;16708;50.426;7.664;2023-08-12T09:29:17;988.36;;;23.05;100.00
29815;BME280;16708;50.426;7.664;2023-08-12T09:34:11;988.39;;;22.77;100.00
29815;BME280;16708;50.426;7.664;2023-08-12T09:39:05;988.49;;;22.86;100.00
29815;BME280;16708;50.426;7.664;2023-08-12T09:44:00;988.55;;;23.25;100.00
29815;BME280;16708;50.426;7.664;2023-08-12T09:48:54;988.54;;;22.88;100.00
29815;BME280;16708;50.426;7.664;2023-08-12T09:53:49;988.65;;;22.86;100.00
29815;BME280;16708;50.426;7.664;2023-08-12T09:58:43;988.59;;;22.49;100.00
29815;BME280;16708;50.426;7.664;2023-08-12T10:03:37;988.55;;;21.83;100.00
29815;BME280;16708;50.426;7.664;2023-08-12T10:08:32;988.46;;;22.30;100.00
29815;BME280;16708;50.426;7.664;2023-08-12T10:13:26;988.47;;;22.32;100.00
29815;BME280;16708;50.426;7.664;2023-08-12T10:18:21;988.53;;;22.41;100.00
29815;BME280;16708;50.426;7.664;2023-08-12T10:23:15;988.52;;;22.61;100.00
29815;BME280;16708;50.426;7.664;2023-08-12T10:28:10;988.53;;;22.99;100.00
29815;BME280;16708;50.426;7.664;2023-08-12T10:33:05;988.64;;;23.18;100.00
29815;BME280;16708;50.426;7.664;2023-08-12T10:38:00;988.62;;;23.94;100.00
29815;BME280;16708;50.426;7.664;2023-08-12T10:42:55;988.51;;;24.96;100.00
29815;BME280;16708;50.426;7.664;2023-08-12T10:47:50;988.52;;;25.09;100.00
29815;BME280;16708;50.426;7.664;2023-08-12T10:57:37;988.47;;;25.16;100.00
29815;BME280;16708;50.426;7.664;2023-08-12T11:02:32;988.18;;;27.53;100.00
29815;BME280;16708;50.426;7.664;2023-08-12T11:12:22;988.10;;;23.05;100.00
29815;BME280;16708;50.426;7.664;2023-08-12T11:17:14;987.99;;;22.83;100.00
29815;BME280;16708;50.426;7.664;2023-08-12T11:22:08;988.15;;;22.32;100.00
29815;BME280;16708;50.426;7.664;2023-08-12T11:27:02;987.96;;;22.10;100.00
29815;BME280;16708;50.426;7.664;2023-08-12T11:31:56;987.71;;;22.72;100.00
29815;BME280;16708;50.426;7.664;2023-08-12T11:36:51;987.86;;;22.83;100.00
29815;BME280;16708;50.426;7.664;2023-08-12T11:41:45;987.86;;;22.49;100.00
29815;BME280;16708;50.426;7.664;2023-08-12T11:46:39;987.74;;;22.72;100.00
29815;BME280;16708;50.426;7.664;2023-08-12T11:51:33;987.77;;;23.29;100.00
29815;BME280;16708;50.426;7.664;2023-08-12T12:01:22;987.89;;;22.68;100.00
29815;BME280;16708;50.426;7.664;2023-08-12T12:06:13;987.93;;;22.50;100.00
29815;BME280;16708;50.426;7.664;2023-08-12T12:11:07;987.88;;;22.74;100.00
29815;BME280;16708;50.426;7.664;2023-08-12T12:16:02;988.00;;;22.59;100.00
29815;BME280;16708;50.426;7.664;2023-08-12T12:20:56;988.01;;;23.26;100.00
29815;BME280;16708;50.426;7.664;2023-08-12T12:25:50;988.09;;;23.64;100.00
29815;BME280;16708;50.426;7.664;2023-08-12T12:30:45;988.03;;;24.70;100.00
29815;BME280;16708;50.426;7.664;2023-08-12T12:35:41;987.96;;;27.81;100.00
29815;BME280;16708;50.426;7.664;2023-08-12T12:45:31;988.11;;;29.20;95.38
29815;BME280;16708;50.426;7.664;2023-08-12T12:50:27;987.88;;;27.10;100.00
29815;BME280;16708;50.426;7.664;2023-08-12T12:55:22;987.88;;;25.49;100.00
29815;BME280;16708;50.426;7.664;2023-08-12T13:00:15;987.76;;;24.86;100.00
29815;BME280;16708;50.426;7.664;2023-08-12T13:05:09;987.81;;;24.92;100.00
29815;BME280;16708;50.426;7.664;2023-08-12T13:10:03;987.73;;;25.94;100.00
29815;BME280;16708;50.426;7.664;2023-08-12T13:14:57;987.72;;;25.28;100.00
29815;BME280;16708;50.426;7.664;2023-08-12T13:19:52;987.82;;;25.14;100.00
29815;BME280;16708;50.426;7.664;2023-08-12T13:24:46;987.84;;;23.97;100.00
29815;BME280;16708;50.426;7.664;2023-08-12T13:29:38;987.88;;;23.87;100.00
29815;BME280;16708;50.426;7.664;2023-08-12T13:34:31;987.87;;;23.96;100.00
29815;BME280;16708;50.426;7.664;2023-08-12T13:39:26;987.87;;;24.24;100.00
29815;BME280;16708;50.426;7.664;2023-08-12T13:44:20;987.89;;;23.89;100.00
29815;BME280;16708;50.426;7.664;2023-08-12T13:49:14;987.90;;;23.51;100.00
29815;BME280;16708;50.426;7.664;2023-08-12T13:54:09;987.93;;;23.85;100.00
29815;BME280;16708;50.426;7.664;2023-08-12T13:59:03;987.98;;;23.68;100.00
29815;BME280;16708;50.426;7.664;2023-08-12T14:03:58;987.88;;;23.85;100.00
29815;BME280;16708;50.426;7.664;2023-08-12T14:08:52;987.90;;;23.59;100.00
29815;BME280;16708;50.426;7.664;2023-08-12T14:13:45;987.87;;;23.60;100.00
29815;BME280;16708;50.426;7.664;2023-08-12T14:18:39;987.92;;;23.55;100.00
29815;BME280;16708;50.426;7.664;2023-08-12T14:23:31;987.90;;;23.52;100.00
29815;BME280;16708;50.426;7.664;2023-08-12T14:28:25;987.93;;;23.42;100.00
29815;BME280;16708;50.426;7.664;2023-08-12T14:33:19;987.86;;;23.37;100.00
29815;BME280;16708;50.426;7.664;2023-08-12T14:38:14;987.94;;;23.41;100.00
29815;BME280;16708;50.426;7.664;2023-08-12T14:43:09;987.93;;;23.39;100.00
29815;BME280;16708;50.426;7.664;2023-08-12T14:48:03;987.86;;;23.55;100.00
29815;BME280;16708;50.426;7.664;2023-08-12T14:52:58;987.83;;;23.72;100.00
29815;BME280;16708;50.426;7.664;2023-08-12T14:57:52;987.85;;;24.06;100.00
29815;BME280;16708;50.426;7.664;2023-08-12T15:07:42;987.72;;;24.51;100.00
29815;BME280;16708;50.426;7.664;2023-08-12T15:12:37;987.81;;;24.05;100.00
29815;BME280;16708;50.426;7.664;2023-08-12T15:17:31;987.76;;;23.97;100.00
29815;BME280;16708;50.426;7.664;2023-08-12T15:22:26;987.71;;;23.97;100.00
29815;BME280;16708;50.426;7.664;2023-08-12T15:27:20;987.69;;;24.11;100.00
29815;BME280;16708;50.426;7.664;2023-08-12T15:32:15;987.72;;;24.11;100.00
29815;BME280;16708;50.426;7.664;2023-08-12T15:37:09;987.67;;;23.92;100.00
29815;BME280;16708;50.426;7.664;2023-08-12T15:42:04;987.62;;;24.68;100.00
29815;BME280;16708;50.426;7.664;2023-08-12T15:46:59;987.59;;;24.88;100.00
29815;BME280;16708;50.426;7.664;2023-08-12T15:51:54;987.60;;;24.66;100.00
29815;BME280;16708;50.426;7.664;2023-08-12T15:56:48;987.56;;;24.27;100.00
29815;BME280;16708;50.426;7.664;2023-08-12T16:01:42;987.68;;;24.15;100.00
29815;BME280;16708;50.426;7.664;2023-08-12T16:06:37;987.55;;;24.82;100.00
29815;BME280;16708;50.426;7.664;2023-08-12T16:11:30;987.58;;;26.90;100.00
29815;BME280;16708;50.426;7.664;2023-08-12T16:16:26;987.60;;;27.41;100.00
29815;BME280;16708;50.426;7.664;2023-08-12T16:21:21;987.47;;;26.11;100.00
29815;BME280;16708;50.426;7.664;2023-08-12T16:26:16;987.40;;;24.44;100.00
29815;BME280;16708;50.426;7.664;2023-08-12T16:31:12;987.48;;;23.77;100.00
29815;BME280;16708;50.426;7.664;2023-08-12T16:36:02;987.49;;;23.60;100.00
29815;BME280;16708;50.426;7.664;2023-08-12T16:40:55;987.53;;;23.62;100.00
29815;BME280;16708;50.426;7.664;2023-08-12T16:45:49;987.65;;;23.40;100.00
29815;BME280;16708;50.426;7.664;2023-08-12T16:50:43;987.72;;;23.20;100.00
29815;BME280;16708;50.426;7.664;2023-08-12T16:55:37;987.80;;;23.07;100.00
29815;BME280;16708;50.426;7.664;2023-08-12T17:00:31;987.71;;;24.79;100.00
29815;BME280;16708;50.426;7.664;2023-08-12T17:05:25;987.94;;;23.79;100.00
29815;BME280;16708;50.426;7.664;2023-08-12T17:10:20;987.87;;;23.24;100.00
29815;BME280;16708;50.426;7.664;2023-08-12T17:15:14;987.96;;;23.23;100.00
29815;BME280;16708;50.426;7.664;2023-08-12T17:20:08;987.90;;;23.10;100.00
29815;BME280;16708;50.426;7.664;2023-08-12T17:25:01;988.02;;;22.83;100.00
29815;BME280;16708;50.426;7.664;2023-08-12T17:29:56;988.06;;;22.74;100.00
29815;BME280;16708;50.426;7.664;2023-08-12T17:34:49;987.98;;;22.59;100.00
29815;BME280;16708;50.426;7.664;2023-08-12T17:39:44;988.08;;;22.31;100.00
29815;BME280;16708;50.426;7.664;2023-08-12T17:44:38;988.08;;;22.15;100.00
29815;BME280;16708;50.426;7.664;2023-08-12T17:49:31;988.25;;;22.02;100.00
29815;BME280;16708;50.426;7.664;2023-08-12T17:54:25;988.15;;;21.93;100.00
29815;BME280;16708;50.426;7.664;2023-08-12T17:59:21;988.24;;;21.84;100.00
29815;BME280;16708;50.426;7.664;2023-08-12T18:04:12;988.23;;;21.72;100.00
29815;BME280;16708;50.426;7.664;2023-08-12T18:09:07;988.28;;;21.65;100.00
29815;BME280;16708;50.426;7.664;2023-08-12T18:13:58;988.35;;;21.59;100.00
29815;BME280;16708;50.426;7.664;2023-08-12T18:18:52;988.36;;;21.44;100.00
29815;BME280;16708;50.426;7.664;2023-08-12T18:23:46;988.43;;;21.47;100.00
29815;BME280;16708;50.426;7.664;2023-08-12T18:28:42;988.44;;;21.25;100.00
29815;BME280;16708;50.426;7.664;2023-08-12T18:33:35;988.45;;;21.11;100.00
29815;BME280;16708;50.426;7.664;2023-08-12T18:38:29;988.46;;;20.79;100.00
29815;BME280;16708;50.426;7.664;2023-08-12T18:43:23;988.65;;;20.69;100.00
29815;BME280;16708;50.426;7.664;2023-08-12T18:48:17;988.60;;;20.59;100.00
29815;BME280;16708;50.426;7.664;2023-08-12T18:53:12;988.65;;;20.50;100.00
29815;BME280;16708;50.426;7.664;2023-08-12T18:58:06;988.61;;;20.48;100.00
29815;BME280;16708;50.426;7.664;2023-08-12T19:03:00;988.69;;;20.43;100.00
29815;BME280;16708;50.426;7.664;2023-08-12T19:07:54;988.81;;;20.32;100.00
29815;BME280;16708;50.426;7.664;2023-08-12T19:12:48;988.65;;;20.22;100.00
29815;BME280;16708;50.426;7.664;2023-08-12T19:17:43;988.72;;;20.18;100.00
29815;BME280;16708;50.426;7.664;2023-08-12T19:22:37;988.98;;;19.83;100.00
29815;BME280;16708;50.426;7.664;2023-08-12T19:27:31;989.04;;;19.86;100.00
29815;BME280;16708;50.426;7.664;2023-08-12T19:32:25;989.40;;;19.89;100.00
29815;BME280;16708;50.426;7.664;2023-08-12T19:37:20;989.60;;;19.05;100.00
29815;BME280;16708;50.426;7.664;2023-08-12T19:42:14;989.50;;;18.50;100.00
29815;BME280;16708;50.426;7.664;2023-08-12T19:47:08;989.62;;;18.31;100.00
29815;BME280;16708;50.426;7.664;2023-08-12T19:52:02;989.60;;;18.24;100.00
29815;BME280;16708;50.426;7.664;2023-08-12T19:56:55;989.76;;;18.26;100.00
29815;BME280;16708;50.426;7.664;2023-08-12T20:01:49;989.74;;;18.26;100.00
29815;BME280;16708;50.426;7.664;2023-08-12T20:06:43;989.85;;;18.29;100.00
29815;BME280;16708;50.426;7.664;2023-08-12T20:11:37;989.87;;;18.34;100.00
29815;BME280;16708;50.426;7.664;2023-08-12T20:16:31;989.83;;;18.27;100.00
29815;BME280;16708;50.426;7.664;2023-08-12T20:21:25;989.83;;;18.17;100.00
29815;BME280;16708;50.426;7.664;2023-08-12T20:26:19;989.89;;;18.05;100.00
29815;BME280;16708;50.426;7.664;2023-08-12T20:31:14;989.86;;;17.95;100.00
29815;BME280;16708;50.426;7.664;2023-08-12T20:36:08;989.99;;;17.96;100.00
29815;BME280;16708;50.426;7.664;2023-08-12T20:41:02;990.01;;;17.86;100.00
29815;BME280;16708;50.426;7.664;2023-08-12T20:45:56;990.13;;;17.82;100.00
29815;BME280;16708;50.426;7.664;2023-08-12T20:50:51;990.12;;;17.80;100.00
29815;BME280;16708;50.426;7.664;2023-08-12T20:55:43;990.12;;;17.70;100.00
29815;BME280;16708;50.426;7.664;2023-08-12T21:00:37;989.99;;;17.68;100.00
29815;BME280;16708;50.426;7.664;2023-08-12T21:05:28;989.98;;;17.66;100.00
29815;BME280;16708;50.426;7.664;2023-08-12T21:10:23;989.88;;;17.57;100.00
29815;BME280;16708;50.426;7.664;2023-08-12T21:15:15;990.07;;;17.48;100.00
29815;BME280;16708;50.426;7.664;2023-08-12T21:20:10;989.99;;;17.43;100.00
29815;BME280;16708;50.426;7.664;2023-08-12T21:25:04;990.02;;;17.34;100.00
29815;BME280;16708;50.426;7.664;2023-08-12T21:29:58;990.14;;;17.38;100.00
29815;BME280;16708;50.426;7.664;2023-08-12T21:34:54;990.11;;;17.38;100.00
29815;BME280;16708;50.426;7.664;2023-08-12T21:39:47;990.11;;;17.29;100.00
29815;BME280;16708;50.426;7.664;2023-08-12T21:44:42;990.14;;;17.23;100.00
29815;BME280;16708;50.426;7.664;2023-08-12T21:49:36;990.17;;;17.12;100.00
29815;BME280;16708;50.426;7.664;2023-08-12T21:54:30;990.25;;;16.92;100.00
29815;BME280;16708;50.426;7.664;2023-08-12T21:59:25;990.27;;;16.97;100.00
29815;BME280;16708;50.426;7.664;2023-08-12T22:04:19;990.23;;;16.98;100.00
29815;BME280;16708;50.426;7.664;2023-08-12T22:09:13;990.13;;;16.86;100.00
29815;BME280;16708;50.426;7.664;2023-08-12T22:14:08;990.04;;;16.74;100.00
29815;BME280;16708;50.426;7.664;2023-08-12T22:19:02;990.11;;;16.69;100.00
29815;BME280;16708;50.426;7.664;2023-08-12T22:23:56;990.06;;;16.62;100.00
29815;BME280;16708;50.426;7.664;2023-08-12T22:28:51;990.00;;;16.67;100.00
29815;BME280;16708;50.426;7.664;2023-08-12T22:33:45;989.96;;;16.61;100.00
29815;BME280;16708;50.426;7.664;2023-08-12T22:38:40;990.03;;;16.54;100.00
29815;BME280;16708;50.426;7.664;2023-08-12T22:43:34;990.10;;;16.47;100.00
29815;BME280;16708;50.426;7.664;2023-08-12T22:48:29;990.11;;;16.46;100.00
29815;BME280;16708;50.426;7.664;2023-08-12T22:53:23;990.06;;;16.41;100.00
29815;BME280;16708;50.426;7.664;2023-08-12T22:58:19;990.08;;;16.38;100.00
29815;BME280;16708;50.426;7.664;2023-08-12T23:03:12;990.03;;;16.34;100.00
29815;BME280;16708;50.426;7.664;2023-08-12T23:08:06;990.05;;;16.28;100.00
29815;BME280;16708;50.426;7.664;2023-08-12T23:13:01;990.04;;;16.17;100.00
29815;BME280;16708;50.426;7.664;2023-08-12T23:17:55;989.90;;;16.06;100.00
29815;BME280;16708;50.426;7.664;2023-08-12T23:22:49;989.90;;;16.02;100.00
29815;BME280;16708;50.426;7.664;2023-08-12T23:27:43;989.98;;;15.99;100.00
29815;BME280;16708;50.426;7.664;2023-08-12T23:32:37;990.00;;;15.93;100.00
29815;BME280;16708;50.426;7.664;2023-08-12T23:37:29;990.06;;;15.77;100.00
29815;BME280;16708;50.426;7.664;2023-08-12T23:42:25;990.07;;;15.83;100.00
29815;BME280;16708;50.426;7.664;2023-08-12T23:47:18;990.11;;;15.85;100.00
29815;BME280;16708;50.426;7.664;2023-08-12T23:52:12;990.08;;;15.90;100.00
29815;BME280;16708;50.426;7.664;2023-08-12T23:57:05;990.06;;;15.97;100.00
